sensor_id;sensor_type;location;lat;lon;timestamp;temperature;humidity
60495;DHT22;46342;49.046;11.920;2023-04-03T00:02:12;6.00;58.70
60495;DHT22;46342;49.046;11.920;2023-04-03T00:04:37;6.00;58.60
60495;DHT22;46342;49.046;11.920;2023-04-03T00:07:03;6.00;58.70
60495;DHT22;46342;49.046;11.920;2023-04-03T00:09:29;6.00;58.70
60495;DHT22;46342;49.046;11.920;2023-04-03T00:11:54;6.00;58.70
60495;DHT22;46342;49.046;11.920;2023-04-03T00:14:20;6.00;58.80
60495;DHT22;46342;49.046;11.920;2023-04-03T00:16:45;6.00;58.70
60495;DHT22;46342;49.046;11.920;2023-04-03T00:19:11;6.00;58.70
60495;DHT22;46342;49.046;11.920;2023-04-03T00:21:38;6.00;58.70
60495;DHT22;46342;49.046;11.920;2023-04-03T00:24:04;6.00;58.80
60495;DHT22;46342;49.046;11.920;2023-04-03T00:26:29;6.00;58.70
60495;DHT22;46342;49.046;11.920;2023-04-03T00:28:55;5.90;58.60
60495;DHT22;46342;49.046;11.920;2023-04-03T00:31:21;5.90;58.60
60495;DHT22;46342;49.046;11.920;2023-04-03T00:33:47;5.90;58.60
60495;DHT22;46342;49.046;11.920;2023-04-03T00:36:13;5.90;58.70
60495;DHT22;46342;49.046;11.920;2023-04-03T00:38:38;5.90;58.80
60495;DHT22;46342;49.046;11.920;2023-04-03T00:41:05;5.90;58.80
60495;DHT22;46342;49.046;11.920;2023-04-03T00:43:31;5.90;58.80
60495;DHT22;46342;49.046;11.920;2023-04-03T00:45:58;5.90;58.80
60495;DHT22;46342;49.046;11.920;2023-04-03T00:48:36;5.90;58.80
60495;DHT22;46342;49.046;11.920;2023-04-03T00:51:04;5.80;58.70
60495;DHT22;46342;49.046;11.920;2023-04-03T00:53:35;5.90;58.90
60495;DHT22;46342;49.046;11.920;2023-04-03T00:56:06;5.80;59.40
60495;DHT22;46342;49.046;11.920;2023-04-03T00:58:38;5.80;58.80
60495;DHT22;46342;49.046;11.920;2023-04-03T01:01:07;5.90;58.90
60495;DHT22;46342;49.046;11.920;2023-04-03T01:03:33;5.80;59.00
60495;DHT22;46342;49.046;11.920;2023-04-03T01:05:59;5.80;59.40
60495;DHT22;46342;49.046;11.920;2023-04-03T01:08:25;5.80;59.40
60495;DHT22;46342;49.046;11.920;2023-04-03T01:10:50;5.80;58.80
60495;DHT22;46342;49.046;11.920;2023-04-03T01:13:26;5.80;58.90
60495;DHT22;46342;49.046;11.920;2023-04-03T01:15:52;5.80;58.80
60495;DHT22;46342;49.046;11.920;2023-04-03T01:18:17;5.80;58.90
60495;DHT22;46342;49.046;11.920;2023-04-03T01:26:12;5.80;58.60
60495;DHT22;46342;49.046;11.920;2023-04-03T01:28:38;5.70;58.80
60495;DHT22;46342;49.046;11.920;2023-04-03T01:33:44;5.70;58.60
60495;DHT22;46342;49.046;11.920;2023-04-03T01:36:15;5.70;58.90
60495;DHT22;46342;49.046;11.920;2023-04-03T01:38:41;5.70;58.80
60495;DHT22;46342;49.046;11.920;2023-04-03T01:41:06;5.60;58.80
60495;DHT22;46342;49.046;11.920;2023-04-03T01:43:32;5.60;58.80
60495;DHT22;46342;49.046;11.920;2023-04-03T01:45:57;5.60;58.80
60495;DHT22;46342;49.046;11.920;2023-04-03T01:48:23;5.60;58.80
60495;DHT22;46342;49.046;11.920;2023-04-03T01:50:48;5.60;58.80
60495;DHT22;46342;49.046;11.920;2023-04-03T01:53:14;5.60;58.80
60495;DHT22;46342;49.046;11.920;2023-04-03T01:55:40;5.60;58.90
60495;DHT22;46342;49.046;11.920;2023-04-03T01:58:05;5.60;59.00
60495;DHT22;46342;49.046;11.920;2023-04-03T02:00:31;5.50;59.60
60495;DHT22;46342;49.046;11.920;2023-04-03T02:02:56;5.60;59.00
60495;DHT22;46342;49.046;11.920;2023-04-03T02:05:22;5.50;58.90
60495;DHT22;46342;49.046;11.920;2023-04-03T02:07:48;5.50;58.90
60495;DHT22;46342;49.046;11.920;2023-04-03T02:10:13;5.50;59.00
60495;DHT22;46342;49.046;11.920;2023-04-03T02:12:39;5.50;59.10
60495;DHT22;46342;49.046;11.920;2023-04-03T02:15:05;5.50;59.10
60495;DHT22;46342;49.046;11.920;2023-04-03T02:17:31;5.50;59.10
60495;DHT22;46342;49.046;11.920;2023-04-03T02:19:56;5.50;59.20
60495;DHT22;46342;49.046;11.920;2023-04-03T02:22:22;5.50;59.00
60495;DHT22;46342;49.046;11.920;2023-04-03T02:24:47;5.50;59.10
60495;DHT22;46342;49.046;11.920;2023-04-03T02:27:13;5.50;59.10
60495;DHT22;46342;49.046;11.920;2023-04-03T02:29:38;5.50;59.10
60495;DHT22;46342;49.046;11.920;2023-04-03T02:32:04;5.50;59.10
60495;DHT22;46342;49.046;11.920;2023-04-03T02:34:30;5.50;59.10
60495;DHT22;46342;49.046;11.920;2023-04-03T02:36:56;5.50;59.20
60495;DHT22;46342;49.046;11.920;2023-04-03T02:39:21;5.50;59.20
60495;DHT22;46342;49.046;11.920;2023-04-03T02:41:47;5.50;59.20
60495;DHT22;46342;49.046;11.920;2023-04-03T02:44:12;5.50;59.20
60495;DHT22;46342;49.046;11.920;2023-04-03T02:46:38;5.50;59.20
60495;DHT22;46342;49.046;11.920;2023-04-03T02:49:04;5.50;59.20
60495;DHT22;46342;49.046;11.920;2023-04-03T02:51:30;5.50;59.20
60495;DHT22;46342;49.046;11.920;2023-04-03T02:53:56;5.50;59.20
60495;DHT22;46342;49.046;11.920;2023-04-03T02:56:21;5.50;59.20
60495;DHT22;46342;49.046;11.920;2023-04-03T02:58:47;5.50;59.20
60495;DHT22;46342;49.046;11.920;2023-04-03T03:01:13;5.50;59.20
60495;DHT22;46342;49.046;11.920;2023-04-03T03:03:39;5.50;59.20
60495;DHT22;46342;49.046;11.920;2023-04-03T03:06:08;5.40;59.10
60495;DHT22;46342;49.046;11.920;2023-04-03T03:08:34;5.50;59.20
60495;DHT22;46342;49.046;11.920;2023-04-03T03:11:00;5.40;59.10
60495;DHT22;46342;49.046;11.920;2023-04-03T03:13:26;5.40;59.10
60495;DHT22;46342;49.046;11.920;2023-04-03T03:15:52;5.40;59.50
60495;DHT22;46342;49.046;11.920;2023-04-03T03:18:17;5.40;59.10
60495;DHT22;46342;49.046;11.920;2023-04-03T03:20:43;5.40;59.10
60495;DHT22;46342;49.046;11.920;2023-04-03T03:23:09;5.40;59.20
60495;DHT22;46342;49.046;11.920;2023-04-03T03:25:39;5.40;59.10
60495;DHT22;46342;49.046;11.920;2023-04-03T03:28:06;5.40;59.10
60495;DHT22;46342;49.046;11.920;2023-04-03T03:30:31;5.40;59.20
60495;DHT22;46342;49.046;11.920;2023-04-03T03:32:57;5.40;59.30
60495;DHT22;46342;49.046;11.920;2023-04-03T03:35:22;5.40;59.30
60495;DHT22;46342;49.046;11.920;2023-04-03T03:37:48;5.40;59.30
60495;DHT22;46342;49.046;11.920;2023-04-03T03:40:14;5.40;59.30
60495;DHT22;46342;49.046;11.920;2023-04-03T03:42:40;5.30;59.30
60495;DHT22;46342;49.046;11.920;2023-04-03T03:45:06;5.40;59.30
60495;DHT22;46342;49.046;11.920;2023-04-03T03:47:32;5.40;59.30
60495;DHT22;46342;49.046;11.920;2023-04-03T03:49:57;5.40;59.30
60495;DHT22;46342;49.046;11.920;2023-04-03T03:52:23;5.40;59.20
60495;DHT22;46342;49.046;11.920;2023-04-03T03:54:48;5.30;59.10
60495;DHT22;46342;49.046;11.920;2023-04-03T03:57:14;5.40;59.20
60495;DHT22;46342;49.046;11.920;2023-04-03T03:59:40;5.30;59.20
60495;DHT22;46342;49.046;11.920;2023-04-03T04:02:07;5.30;59.20
60495;DHT22;46342;49.046;11.920;2023-04-03T04:04:33;5.30;59.20
60495;DHT22;46342;49.046;11.920;2023-04-03T04:06:58;5.30;59.20
60495;DHT22;46342;49.046;11.920;2023-04-03T04:09:26;5.30;59.80
60495;DHT22;46342;49.046;11.920;2023-04-03T04:11:52;5.30;59.10
60495;DHT22;46342;49.046;11.920;2023-04-03T04:14:18;5.30;59.20
60495;DHT22;46342;49.046;11.920;2023-04-03T04:16:46;5.20;59.30
60495;DHT22;46342;49.046;11.920;2023-04-03T04:19:11;5.20;59.30
60495;DHT22;46342;49.046;11.920;2023-04-03T04:21:37;5.20;59.30
60495;DHT22;46342;49.046;11.920;2023-04-03T04:24:02;5.20;59.30
60495;DHT22;46342;49.046;11.920;2023-04-03T04:26:28;5.20;59.30
60495;DHT22;46342;49.046;11.920;2023-04-03T04:28:54;5.20;59.30
60495;DHT22;46342;49.046;11.920;2023-04-03T04:31:19;5.20;59.30
60495;DHT22;46342;49.046;11.920;2023-04-03T04:33:45;5.20;59.40
60495;DHT22;46342;49.046;11.920;2023-04-03T04:36:10;5.20;59.50
60495;DHT22;46342;49.046;11.920;2023-04-03T04:38:36;5.20;59.50
60495;DHT22;46342;49.046;11.920;2023-04-03T04:41:02;5.20;59.30
60495;DHT22;46342;49.046;11.920;2023-04-03T04:43:27;5.30;59.40
60495;DHT22;46342;49.046;11.920;2023-04-03T04:46:07;5.20;59.40
60495;DHT22;46342;49.046;11.920;2023-04-03T04:48:34;5.20;59.30
60495;DHT22;46342;49.046;11.920;2023-04-03T04:50:59;5.20;59.30
60495;DHT22;46342;49.046;11.920;2023-04-03T04:53:25;5.20;59.30
60495;DHT22;46342;49.046;11.920;2023-04-03T04:55:51;5.20;59.30
60495;DHT22;46342;49.046;11.920;2023-04-03T04:58:17;5.10;59.30
60495;DHT22;46342;49.046;11.920;2023-04-03T05:00:43;5.10;59.40
60495;DHT22;46342;49.046;11.920;2023-04-03T05:03:09;5.20;59.40
60495;DHT22;46342;49.046;11.920;2023-04-03T05:05:34;5.10;59.90
60495;DHT22;46342;49.046;11.920;2023-04-03T05:08:01;5.10;59.30
60495;DHT22;46342;49.046;11.920;2023-04-03T05:10:27;5.10;59.40
60495;DHT22;46342;49.046;11.920;2023-04-03T05:12:53;5.10;59.40
60495;DHT22;46342;49.046;11.920;2023-04-03T05:15:18;5.10;59.40
60495;DHT22;46342;49.046;11.920;2023-04-03T05:17:44;5.10;59.40
60495;DHT22;46342;49.046;11.920;2023-04-03T05:20:10;5.00;59.40
60495;DHT22;46342;49.046;11.920;2023-04-03T05:22:36;5.10;59.60
60495;DHT22;46342;49.046;11.920;2023-04-03T05:25:02;5.10;59.50
60495;DHT22;46342;49.046;11.920;2023-04-03T05:27:27;5.10;59.50
60495;DHT22;46342;49.046;11.920;2023-04-03T05:29:54;5.10;59.50
60495;DHT22;46342;49.046;11.920;2023-04-03T05:32:20;5.10;59.50
60495;DHT22;46342;49.046;11.920;2023-04-03T05:34:46;5.10;59.60
60495;DHT22;46342;49.046;11.920;2023-04-03T05:37:12;5.10;59.60
60495;DHT22;46342;49.046;11.920;2023-04-03T05:39:37;5.10;59.60
60495;DHT22;46342;49.046;11.920;2023-04-03T05:42:05;5.10;59.70
60495;DHT22;46342;49.046;11.920;2023-04-03T05:44:31;5.10;59.60
60495;DHT22;46342;49.046;11.920;2023-04-03T05:46:57;5.20;59.60
60495;DHT22;46342;49.046;11.920;2023-04-03T05:49:22;5.10;59.60
60495;DHT22;46342;49.046;11.920;2023-04-03T05:51:48;5.10;59.60
60495;DHT22;46342;49.046;11.920;2023-04-03T05:54:20;5.10;59.60
60495;DHT22;46342;49.046;11.920;2023-04-03T05:56:49;5.10;59.70
60495;DHT22;46342;49.046;11.920;2023-04-03T05:59:14;5.10;59.70
60495;DHT22;46342;49.046;11.920;2023-04-03T06:01:40;5.10;59.70
60495;DHT22;46342;49.046;11.920;2023-04-03T06:04:06;5.10;59.80
60495;DHT22;46342;49.046;11.920;2023-04-03T06:09:24;5.20;59.80
60495;DHT22;46342;49.046;11.920;2023-04-03T06:11:51;5.20;59.80
60495;DHT22;46342;49.046;11.920;2023-04-03T06:14:17;5.20;59.90
60495;DHT22;46342;49.046;11.920;2023-04-03T06:16:43;5.20;59.90
60495;DHT22;46342;49.046;11.920;2023-04-03T06:19:09;5.20;59.90
60495;DHT22;46342;49.046;11.920;2023-04-03T06:21:35;5.20;59.90
60495;DHT22;46342;49.046;11.920;2023-04-03T06:24:02;5.30;60.00
60495;DHT22;46342;49.046;11.920;2023-04-03T06:26:28;5.30;60.00
60495;DHT22;46342;49.046;11.920;2023-04-03T06:28:54;5.30;59.90
60495;DHT22;46342;49.046;11.920;2023-04-03T06:31:19;5.30;60.00
60495;DHT22;46342;49.046;11.920;2023-04-03T06:33:45;5.30;60.00
60495;DHT22;46342;49.046;11.920;2023-04-03T06:36:11;5.40;60.10
60495;DHT22;46342;49.046;11.920;2023-04-03T06:38:37;5.40;60.10
60495;DHT22;46342;49.046;11.920;2023-04-03T06:41:03;5.40;60.10
60495;DHT22;46342;49.046;11.920;2023-04-03T06:43:29;5.40;60.10
60495;DHT22;46342;49.046;11.920;2023-04-03T06:45:56;5.50;60.30
60495;DHT22;46342;49.046;11.920;2023-04-03T06:48:22;5.50;60.30
60495;DHT22;46342;49.046;11.920;2023-04-03T06:50:48;5.60;60.20
60495;DHT22;46342;49.046;11.920;2023-04-03T06:53:13;5.60;60.20
60495;DHT22;46342;49.046;11.920;2023-04-03T06:55:40;5.60;60.50
60495;DHT22;46342;49.046;11.920;2023-04-03T06:58:06;5.60;60.20
60495;DHT22;46342;49.046;11.920;2023-04-03T07:00:32;5.70;60.20
60495;DHT22;46342;49.046;11.920;2023-04-03T07:02:58;5.70;60.10
60495;DHT22;46342;49.046;11.920;2023-04-03T07:05:24;5.70;60.00
60495;DHT22;46342;49.046;11.920;2023-04-03T07:07:50;5.80;60.10
60495;DHT22;46342;49.046;11.920;2023-04-03T07:10:16;5.80;60.10
60495;DHT22;46342;49.046;11.920;2023-04-03T07:12:42;5.80;60.00
60495;DHT22;46342;49.046;11.920;2023-04-03T07:15:08;5.80;59.90
60495;DHT22;46342;49.046;11.920;2023-04-03T07:17:34;5.90;60.00
60495;DHT22;46342;49.046;11.920;2023-04-03T07:20:01;5.90;60.00
60495;DHT22;46342;49.046;11.920;2023-04-03T07:22:27;6.00;60.10
60495;DHT22;46342;49.046;11.920;2023-04-03T07:24:52;6.00;60.00
60495;DHT22;46342;49.046;11.920;2023-04-03T07:27:18;6.00;59.80
60495;DHT22;46342;49.046;11.920;2023-04-03T07:29:44;6.10;59.90
60495;DHT22;46342;49.046;11.920;2023-04-03T07:32:09;6.10;59.80
60495;DHT22;46342;49.046;11.920;2023-04-03T07:34:36;6.10;59.80
60495;DHT22;46342;49.046;11.920;2023-04-03T07:37:02;6.30;60.10
60495;DHT22;46342;49.046;11.920;2023-04-03T07:39:28;6.20;60.00
60495;DHT22;46342;49.046;11.920;2023-04-03T07:41:54;6.40;60.10
60495;DHT22;46342;49.046;11.920;2023-04-03T07:44:21;6.30;59.80
60495;DHT22;46342;49.046;11.920;2023-04-03T07:46:47;6.30;59.70
60495;DHT22;46342;49.046;11.920;2023-04-03T07:49:14;6.40;59.60
60495;DHT22;46342;49.046;11.920;2023-04-03T07:51:39;6.40;59.60
60495;DHT22;46342;49.046;11.920;2023-04-03T07:54:06;6.40;59.60
60495;DHT22;46342;49.046;11.920;2023-04-03T07:56:31;6.50;59.80
60495;DHT22;46342;49.046;11.920;2023-04-03T07:58:57;6.50;59.80
60495;DHT22;46342;49.046;11.920;2023-04-03T08:01:23;6.50;59.80
60495;DHT22;46342;49.046;11.920;2023-04-03T08:03:48;6.60;59.80
60495;DHT22;46342;49.046;11.920;2023-04-03T08:06:14;6.60;59.80
60495;DHT22;46342;49.046;11.920;2023-04-03T08:08:40;6.60;59.40
60495;DHT22;46342;49.046;11.920;2023-04-03T08:11:06;6.70;59.40
60495;DHT22;46342;49.046;11.920;2023-04-03T08:13:33;6.80;59.10
60495;DHT22;46342;49.046;11.920;2023-04-03T08:16:09;6.80;59.00
60495;DHT22;46342;49.046;11.920;2023-04-03T08:18:36;6.90;58.50
60495;DHT22;46342;49.046;11.920;2023-04-03T08:21:06;6.90;59.00
60495;DHT22;46342;49.046;11.920;2023-04-03T08:23:31;7.00;59.00
60495;DHT22;46342;49.046;11.920;2023-04-03T08:25:57;7.00;59.10
60495;DHT22;46342;49.046;11.920;2023-04-03T08:28:22;7.00;59.00
60495;DHT22;46342;49.046;11.920;2023-04-03T08:30:48;7.10;58.90
60495;DHT22;46342;49.046;11.920;2023-04-03T08:33:13;7.10;58.90
60495;DHT22;46342;49.046;11.920;2023-04-03T08:35:40;7.10;58.90
60495;DHT22;46342;49.046;11.920;2023-04-03T08:38:07;7.20;58.90
60495;DHT22;46342;49.046;11.920;2023-04-03T08:40:33;7.20;58.80
60495;DHT22;46342;49.046;11.920;2023-04-03T08:45:52;7.30;58.30
60495;DHT22;46342;49.046;11.920;2023-04-03T08:48:22;7.40;58.80
60495;DHT22;46342;49.046;11.920;2023-04-03T08:50:53;7.40;58.70
60495;DHT22;46342;49.046;11.920;2023-04-03T08:53:27;7.50;58.30
60495;DHT22;46342;49.046;11.920;2023-04-03T08:55:54;7.50;58.30
60495;DHT22;46342;49.046;11.920;2023-04-03T08:58:26;7.50;58.40
60495;DHT22;46342;49.046;11.920;2023-04-03T09:01:03;7.70;57.80
60495;DHT22;46342;49.046;11.920;2023-04-03T09:03:39;7.70;56.90
60495;DHT22;46342;49.046;11.920;2023-04-03T09:11:40;7.70;56.60
60495;DHT22;46342;49.046;11.920;2023-04-03T09:14:41;7.70;57.50
60495;DHT22;46342;49.046;11.920;2023-04-03T09:17:20;7.70;55.70
60495;DHT22;46342;49.046;11.920;2023-04-03T09:22:40;7.80;56.20
60495;DHT22;46342;49.046;11.920;2023-04-03T09:25:23;7.80;56.60
60495;DHT22;46342;49.046;11.920;2023-04-03T09:27:51;7.80;55.70
60495;DHT22;46342;49.046;11.920;2023-04-03T09:30:22;7.80;56.40
60495;DHT22;46342;49.046;11.920;2023-04-03T09:32:53;7.70;55.50
60495;DHT22;46342;49.046;11.920;2023-04-03T09:35:28;7.80;55.80
60495;DHT22;46342;49.046;11.920;2023-04-03T09:40:39;7.80;55.20
60495;DHT22;46342;49.046;11.920;2023-04-03T09:43:22;7.90;55.60
60495;DHT22;46342;49.046;11.920;2023-04-03T09:45:49;8.00;53.80
60495;DHT22;46342;49.046;11.920;2023-04-03T09:48:16;8.10;55.50
60495;DHT22;46342;49.046;11.920;2023-04-03T09:51:03;8.20;55.40
60495;DHT22;46342;49.046;11.920;2023-04-03T09:56:35;8.40;55.30
60495;DHT22;46342;49.046;11.920;2023-04-03T10:01:29;8.70;54.20
60495;DHT22;46342;49.046;11.920;2023-04-03T10:04:13;8.70;54.10
60495;DHT22;46342;49.046;11.920;2023-04-03T10:06:40;8.80;52.20
60495;DHT22;46342;49.046;11.920;2023-04-03T10:12:08;8.80;52.10
60495;DHT22;46342;49.046;11.920;2023-04-03T10:15:01;8.80;52.80
60495;DHT22;46342;49.046;11.920;2023-04-03T10:20:23;8.90;53.30
60495;DHT22;46342;49.046;11.920;2023-04-03T10:23:14;8.90;53.20
60495;DHT22;46342;49.046;11.920;2023-04-03T10:25:52;9.00;54.20
60495;DHT22;46342;49.046;11.920;2023-04-03T10:28:31;9.10;54.20
60495;DHT22;46342;49.046;11.920;2023-04-03T10:31:13;9.30;53.20
60495;DHT22;46342;49.046;11.920;2023-04-03T10:34:02;9.40;53.20
60495;DHT22;46342;49.046;11.920;2023-04-03T10:42:24;9.70;53.60
60495;DHT22;46342;49.046;11.920;2023-04-03T10:47:42;10.00;53.30
60495;DHT22;46342;49.046;11.920;2023-04-03T10:58:33;10.20;51.40
60495;DHT22;46342;49.046;11.920;2023-04-03T11:01:06;10.20;51.30
60495;DHT22;46342;49.046;11.920;2023-04-03T11:03:39;10.20;52.00
60495;DHT22;46342;49.046;11.920;2023-04-03T11:06:09;10.30;51.00
60495;DHT22;46342;49.046;11.920;2023-04-03T11:08:42;10.30;51.70
60495;DHT22;46342;49.046;11.920;2023-04-03T11:11:16;10.30;50.80
60495;DHT22;46342;49.046;11.920;2023-04-03T11:13:57;10.30;50.10
60495;DHT22;46342;49.046;11.920;2023-04-03T11:16:31;10.30;48.80
60495;DHT22;46342;49.046;11.920;2023-04-03T11:19:03;10.20;49.30
60495;DHT22;46342;49.046;11.920;2023-04-03T11:24:32;10.20;48.10
60495;DHT22;46342;49.046;11.920;2023-04-03T11:27:00;10.10;50.10
60495;DHT22;46342;49.046;11.920;2023-04-03T11:29:36;10.10;50.10
60495;DHT22;46342;49.046;11.920;2023-04-03T11:34:56;10.00;48.70
60495;DHT22;46342;49.046;11.920;2023-04-03T11:37:34;10.00;49.60
60495;DHT22;46342;49.046;11.920;2023-04-03T11:42:42;9.90;50.80
60495;DHT22;46342;49.046;11.920;2023-04-03T12:05:58;10.30;47.60
60495;DHT22;46342;49.046;11.920;2023-04-03T12:08:46;10.30;49.00
60495;DHT22;46342;49.046;11.920;2023-04-03T12:11:15;10.30;46.80
60495;DHT22;46342;49.046;11.920;2023-04-03T12:16:24;10.50;47.90
60495;DHT22;46342;49.046;11.920;2023-04-03T12:24:30;10.70;47.50
60495;DHT22;46342;49.046;11.920;2023-04-03T12:35:31;10.90;46.90
60495;DHT22;46342;49.046;11.920;2023-04-03T12:38:17;10.80;42.30
60495;DHT22;46342;49.046;11.920;2023-04-03T12:43:34;10.80;45.60
60495;DHT22;46342;49.046;11.920;2023-04-03T12:46:10;10.80;44.90
60495;DHT22;46342;49.046;11.920;2023-04-03T12:48:58;10.80;47.40
60495;DHT22;46342;49.046;11.920;2023-04-03T12:51:28;10.80;45.00
60495;DHT22;46342;49.046;11.920;2023-04-03T12:54:04;10.90;47.40
60495;DHT22;46342;49.046;11.920;2023-04-03T12:56:38;11.00;46.70
60495;DHT22;46342;49.046;11.920;2023-04-03T12:59:25;11.10;47.10
60495;DHT22;46342;49.046;11.920;2023-04-03T13:01:59;11.20;44.40
60495;DHT22;46342;49.046;11.920;2023-04-03T13:04:27;11.20;44.80
60495;DHT22;46342;49.046;11.920;2023-04-03T13:06:53;11.20;45.30
60495;DHT22;46342;49.046;11.920;2023-04-03T13:09:28;11.20;46.20
60495;DHT22;46342;49.046;11.920;2023-04-03T13:12:13;11.20;47.00
60495;DHT22;46342;49.046;11.920;2023-04-03T13:14:39;11.20;46.10
60495;DHT22;46342;49.046;11.920;2023-04-03T13:17:17;11.20;47.00
60495;DHT22;46342;49.046;11.920;2023-04-03T13:19:44;11.20;43.70
60495;DHT22;46342;49.046;11.920;2023-04-03T13:24:51;11.00;44.00
60495;DHT22;46342;49.046;11.920;2023-04-03T13:27:17;11.00;45.60
60495;DHT22;46342;49.046;11.920;2023-04-03T13:29:43;10.90;45.50
60495;DHT22;46342;49.046;11.920;2023-04-03T13:32:22;10.90;46.10
60495;DHT22;46342;49.046;11.920;2023-04-03T13:34:48;10.90;43.90
60495;DHT22;46342;49.046;11.920;2023-04-03T13:37:25;10.90;45.70
60495;DHT22;46342;49.046;11.920;2023-04-03T13:40:09;11.00;44.10
60495;DHT22;46342;49.046;11.920;2023-04-03T13:42:39;11.00;42.90
60495;DHT22;46342;49.046;11.920;2023-04-03T13:45:22;11.10;45.20
60495;DHT22;46342;49.046;11.920;2023-04-03T13:47:53;11.10;43.20
60495;DHT22;46342;49.046;11.920;2023-04-03T13:50:25;11.20;44.20
60495;DHT22;46342;49.046;11.920;2023-04-03T13:53:11;11.20;42.50
60495;DHT22;46342;49.046;11.920;2023-04-03T13:58:26;11.20;42.80
60495;DHT22;46342;49.046;11.920;2023-04-03T14:03:52;11.20;43.50
60495;DHT22;46342;49.046;11.920;2023-04-03T14:06:18;11.20;44.00
60495;DHT22;46342;49.046;11.920;2023-04-03T14:08:45;11.20;44.80
60495;DHT22;46342;49.046;11.920;2023-04-03T14:11:19;11.20;44.00
60495;DHT22;46342;49.046;11.920;2023-04-03T14:13:46;11.20;42.40
60495;DHT22;46342;49.046;11.920;2023-04-03T14:16:15;11.10;43.00
60495;DHT22;46342;49.046;11.920;2023-04-03T14:18:42;11.10;41.80
60495;DHT22;46342;49.046;11.920;2023-04-03T14:21:12;11.00;42.40
60495;DHT22;46342;49.046;11.920;2023-04-03T14:23:38;10.90;42.00
60495;DHT22;46342;49.046;11.920;2023-04-03T14:26:08;10.80;42.40
60495;DHT22;46342;49.046;11.920;2023-04-03T14:28:35;10.70;43.40
60495;DHT22;46342;49.046;11.920;2023-04-03T14:31:00;10.70;43.70
60495;DHT22;46342;49.046;11.920;2023-04-03T14:33:26;10.70;42.60
60495;DHT22;46342;49.046;11.920;2023-04-03T14:35:53;10.70;43.50
60495;DHT22;46342;49.046;11.920;2023-04-03T14:38:25;10.80;42.10
60495;DHT22;46342;49.046;11.920;2023-04-03T14:40:52;10.80;40.90
60495;DHT22;46342;49.046;11.920;2023-04-03T14:43:18;10.80;42.60
60495;DHT22;46342;49.046;11.920;2023-04-03T14:45:44;10.80;43.30
60495;DHT22;46342;49.046;11.920;2023-04-03T14:48:18;10.70;43.50
60495;DHT22;46342;49.046;11.920;2023-04-03T14:50:44;10.70;42.40
60495;DHT22;46342;49.046;11.920;2023-04-03T14:53:11;10.70;43.60
60495;DHT22;46342;49.046;11.920;2023-04-03T14:55:37;10.80;43.50
60495;DHT22;46342;49.046;11.920;2023-04-03T14:58:02;10.80;43.00
60495;DHT22;46342;49.046;11.920;2023-04-03T15:00:28;10.90;43.00
60495;DHT22;46342;49.046;11.920;2023-04-03T15:02:54;10.80;42.70
60495;DHT22;46342;49.046;11.920;2023-04-03T15:05:20;10.70;43.00
60495;DHT22;46342;49.046;11.920;2023-04-03T15:08:03;10.70;42.80
60495;DHT22;46342;49.046;11.920;2023-04-03T15:10:30;10.70;41.80
60495;DHT22;46342;49.046;11.920;2023-04-03T15:12:56;10.70;43.00
60495;DHT22;46342;49.046;11.920;2023-04-03T15:15:23;10.70;42.20
60495;DHT22;46342;49.046;11.920;2023-04-03T15:17:54;10.80;42.90
60495;DHT22;46342;49.046;11.920;2023-04-03T15:20:24;10.70;43.10
60495;DHT22;46342;49.046;11.920;2023-04-03T15:22:50;10.60;42.90
60495;DHT22;46342;49.046;11.920;2023-04-03T15:25:16;10.60;43.30
60495;DHT22;46342;49.046;11.920;2023-04-03T15:27:42;10.50;43.30
60495;DHT22;46342;49.046;11.920;2023-04-03T15:30:11;10.50;43.10
60495;DHT22;46342;49.046;11.920;2023-04-03T15:32:38;10.50;43.10
60495;DHT22;46342;49.046;11.920;2023-04-03T15:35:04;10.50;43.30
60495;DHT22;46342;49.046;11.920;2023-04-03T15:37:30;10.50;41.90
60495;DHT22;46342;49.046;11.920;2023-04-03T15:39:55;10.60;41.50
60495;DHT22;46342;49.046;11.920;2023-04-03T15:42:21;10.40;42.30
60495;DHT22;46342;49.046;11.920;2023-04-03T15:44:46;10.40;41.80
60495;DHT22;46342;49.046;11.920;2023-04-03T15:47:12;10.30;42.20
60495;DHT22;46342;49.046;11.920;2023-04-03T15:49:38;10.30;42.70
60495;DHT22;46342;49.046;11.920;2023-04-03T15:52:04;10.20;42.90
60495;DHT22;46342;49.046;11.920;2023-04-03T15:54:29;10.20;42.60
60495;DHT22;46342;49.046;11.920;2023-04-03T15:56:55;10.20;42.90
60495;DHT22;46342;49.046;11.920;2023-04-03T15:59:21;10.20;42.50
60495;DHT22;46342;49.046;11.920;2023-04-03T16:01:48;10.20;41.80
60495;DHT22;46342;49.046;11.920;2023-04-03T16:04:13;10.20;42.00
60495;DHT22;46342;49.046;11.920;2023-04-03T16:06:40;10.20;42.20
60495;DHT22;46342;49.046;11.920;2023-04-03T16:09:06;10.10;42.40
60495;DHT22;46342;49.046;11.920;2023-04-03T16:11:32;10.10;42.10
60495;DHT22;46342;49.046;11.920;2023-04-03T16:14:00;10.00;42.30
60495;DHT22;46342;49.046;11.920;2023-04-03T16:16:25;10.00;42.10
60495;DHT22;46342;49.046;11.920;2023-04-03T16:18:54;10.00;42.60
60495;DHT22;46342;49.046;11.920;2023-04-03T16:21:21;9.90;42.60
60495;DHT22;46342;49.046;11.920;2023-04-03T16:23:46;9.90;42.80
60495;DHT22;46342;49.046;11.920;2023-04-03T16:26:12;9.90;43.00
60495;DHT22;46342;49.046;11.920;2023-04-03T16:28:38;9.90;43.00
60495;DHT22;46342;49.046;11.920;2023-04-03T16:31:05;9.80;43.20
60495;DHT22;46342;49.046;11.920;2023-04-03T16:33:31;9.80;42.90
60495;DHT22;46342;49.046;11.920;2023-04-03T16:35:57;9.80;42.90
60495;DHT22;46342;49.046;11.920;2023-04-03T16:38:23;9.70;42.80
60495;DHT22;46342;49.046;11.920;2023-04-03T16:40:49;9.70;42.10
60495;DHT22;46342;49.046;11.920;2023-04-03T16:43:15;9.60;41.80
60495;DHT22;46342;49.046;11.920;2023-04-03T16:45:41;9.50;41.60
60495;DHT22;46342;49.046;11.920;2023-04-03T16:48:07;9.40;42.00
60495;DHT22;46342;49.046;11.920;2023-04-03T16:50:33;9.30;42.30
60495;DHT22;46342;49.046;11.920;2023-04-03T16:52:58;9.30;42.50
60495;DHT22;46342;49.046;11.920;2023-04-03T16:55:24;9.20;42.30
60495;DHT22;46342;49.046;11.920;2023-04-03T16:57:50;9.10;42.30
60495;DHT22;46342;49.046;11.920;2023-04-03T17:00:16;9.00;42.40
60495;DHT22;46342;49.046;11.920;2023-04-03T17:02:41;8.90;42.60
60495;DHT22;46342;49.046;11.920;2023-04-03T17:05:07;8.90;42.30
60495;DHT22;46342;49.046;11.920;2023-04-03T17:07:33;8.80;42.50
60495;DHT22;46342;49.046;11.920;2023-04-03T17:09:58;8.80;42.70
60495;DHT22;46342;49.046;11.920;2023-04-03T17:12:25;8.60;42.30
60495;DHT22;46342;49.046;11.920;2023-04-03T17:14:50;8.60;42.20
60495;DHT22;46342;49.046;11.920;2023-04-03T17:17:20;8.50;42.50
60495;DHT22;46342;49.046;11.920;2023-04-03T17:19:46;8.40;42.40
60495;DHT22;46342;49.046;11.920;2023-04-03T17:22:12;8.30;42.50
60495;DHT22;46342;49.046;11.920;2023-04-03T17:24:38;8.20;42.20